Huvudsida
METAR-TAF:

METAR-TAF

Flygplatser :

Koror, Babeldaob, Palau

latitud: 07-22N, longitud: 134-32E, höjd: 54 m

Aktuellt väderrapport

Denna rapport gjordes för 52 minuter sedan, klockan 22:55 UTC
Stilla vind
Temperatur 27°C
Fuktighet 84%
Tryck 1009 hPa
Sikt: 22.5 km
Få moln på en höjd av 900 ft
Spridda moln på en höjd av 1600 ft
Brutna moln på en höjd av 12000 ft
Brutna moln på en höjd av 30000 ft

METAR: PTRO 222255Z 00000KT 14SM FEW009 SCT016 BKN120 BKN300 27/24 A2981

Tid: 08:47 (23:47 UTC)

Väderprognos

Denna rapport gjordes för 27 minuter sedan, klockan 23:20 UTC
Prognos gäller från 23 kl. 00 UTC till 23 kl. 24 UTC
Vind 11 kt från sydväst
Sikt: 10 km
Spridda moln på en höjd av 1600 ft
Brutna moln på en höjd av 12000 ft
Brutna moln på en höjd av 30000 ft
skurar i närheten

TAF: PTRO 222320Z 2300/2324 23011KT P6SM VCSH SCT016 BKN120 BKN300

Aktuella väderrapporter och prognoser från 4000 flygplatser (METAR- och TAF-rapporter).

De tillgängliga stationerna syns som gula och röda prickar på kartan.

För musen över prickarna för att se namnen på stationerna.

Klicka sedan för att få väderrapporter och prognoser.

För att ändra kartan: Klicka på de gröna knapparna med ett svart kors på för att zooma in; den gröna knappen med ett streck på för att zooma ut; eller på de gröna pilarna för angränsande kartor.


METAR-TAF: